createdAt,value
2017-08-21T00:01:51.265Z,1011.71
2017-08-21T00:04:15.135Z,1011.75
2017-08-21T00:06:39.007Z,1011.55
2017-08-21T00:09:02.898Z,1011.45
2017-08-21T00:12:54.598Z,1011.54
2017-08-21T00:15:18.503Z,1011.58
2017-08-21T00:17:25.558Z,1011.63
2017-08-21T00:19:35.937Z,1011.61
2017-08-21T00:21:59.820Z,1011.56
2017-08-21T00:24:15.302Z,1011.64
2017-08-21T00:26:39.211Z,1011.59
2017-08-21T00:29:03.084Z,1011.68
2017-08-21T00:31:26.933Z,1011.67
2017-08-21T00:33:50.835Z,1011.66
2017-08-21T00:36:14.587Z,1011.62
2017-08-21T00:38:38.469Z,1011.64
2017-08-21T00:41:02.357Z,1011.66
2017-08-21T00:43:17.736Z,1011.64
2017-08-21T00:45:41.596Z,1011.51
2017-08-21T00:48:05.401Z,1011.49
2017-08-21T00:50:29.245Z,1011.45
2017-08-21T00:52:53.135Z,1011.45
2017-08-21T00:55:16.941Z,1011.4
2017-08-21T00:57:40.776Z,1011.42
2017-08-21T01:00:04.550Z,1011.4
2017-08-21T01:02:28.441Z,1011.37
2017-08-21T01:04:52.317Z,1011.39
2017-08-21T01:07:16.180Z,1011.34
2017-08-21T01:11:16.371Z,1011.34
2017-08-21T01:13:40.301Z,1011.33
2017-08-21T01:16:04.182Z,1011.25
2017-08-21T01:18:06.095Z,1011.29
2017-08-21T01:20:21.528Z,1011.27
2017-08-21T01:22:45.393Z,1011.22
2017-08-21T01:25:09.274Z,1011.26
2017-08-21T01:27:33.149Z,1011.33
2017-08-21T01:29:57.027Z,1011.28
2017-08-21T01:32:08.234Z,1011.17
2017-08-21T01:34:32.181Z,1011.1
2017-08-21T01:36:56.058Z,1011.08
2017-08-21T01:39:19.934Z,1011.1
2017-08-21T01:41:43.827Z,1011.19
2017-08-21T01:44:07.688Z,1011.25
2017-08-21T01:46:31.565Z,1011.22
2017-08-21T01:48:55.444Z,1011.1
2017-08-21T01:51:19.285Z,1010.9
2017-08-21T01:53:43.100Z,1010.93
2017-08-21T01:56:06.964Z,1011.04
2017-08-21T01:58:22.432Z,1011.18
2017-08-21T02:00:46.248Z,1011.24
2017-08-21T02:03:10.036Z,1011.35
2017-08-21T02:05:33.877Z,1011.41
2017-08-21T02:07:49.248Z,1011.35
2017-08-21T02:09:56.231Z,1011.27
2017-08-21T02:12:20.115Z,1011.31
2017-08-21T02:14:35.572Z,1011.34
2017-08-21T02:16:59.463Z,1011.28
2017-08-21T02:19:23.350Z,1011.21
2017-08-21T02:21:38.811Z,1011.23
2017-08-21T02:24:02.610Z,1011.19
2017-08-21T02:26:26.487Z,1011.09
2017-08-21T02:28:50.361Z,1011.04
2017-08-21T02:31:00.735Z,1011.01
2017-08-21T02:33:24.596Z,1011.01
2017-08-21T02:35:48.476Z,1010.93
2017-08-21T02:38:12.366Z,1010.95
2017-08-21T02:40:36.231Z,1011
2017-08-21T02:43:00.106Z,1011.09
2017-08-21T02:45:15.581Z,1011.16
2017-08-21T02:47:31.043Z,1011.13
2017-08-21T02:49:54.945Z,1011.25
2017-08-21T02:52:18.823Z,1011.31
2017-08-21T02:54:42.706Z,1011.33
2017-08-21T02:56:58.181Z,1011.26
2017-08-21T02:59:13.657Z,1011.23
2017-08-21T03:01:37.548Z,1011.23
2017-08-21T03:04:01.428Z,1011.09
2017-08-21T03:06:25.294Z,1011.15
2017-08-21T03:08:49.187Z,1011.19
2017-08-21T03:11:13.059Z,1011.14
2017-08-21T03:13:36.868Z,1011.19
2017-08-21T03:16:00.699Z,1011.17
2017-08-21T03:18:11.063Z,1011.15
2017-08-21T03:20:34.964Z,1011.16
2017-08-21T03:22:58.708Z,1011.06
2017-08-21T03:25:22.583Z,1010.97
2017-08-21T03:27:46.358Z,1010.91
2017-08-21T03:30:10.234Z,1010.92
2017-08-21T03:32:34.013Z,1010.97
2017-08-21T03:34:49.492Z,1010.95
2017-08-21T03:37:04.937Z,1010.93
2017-08-21T03:39:28.690Z,1010.85
2017-08-21T03:41:52.406Z,1010.85
2017-08-21T03:44:16.208Z,1010.89
2017-08-21T03:46:40.072Z,1010.83
2017-08-21T03:49:03.857Z,1010.79
2017-08-21T03:51:27.736Z,1010.83
2017-08-21T03:55:19.482Z,1010.89
2017-08-21T03:57:43.352Z,1010.93
2017-08-21T04:00:07.207Z,1010.97
2017-08-21T04:02:30.987Z,1010.93
2017-08-21T04:04:54.781Z,1010.91
2017-08-21T04:07:10.145Z,1010.95
2017-08-21T04:11:10.204Z,1011.01
2017-08-21T04:15:10.289Z,1011.03
2017-08-21T04:17:34.179Z,1011.03
2017-08-21T04:19:57.971Z,1011.05
2017-08-21T04:22:13.346Z,1011.07
2017-08-21T04:24:37.106Z,1011.11
2017-08-21T04:26:52.571Z,1011.13
2017-08-21T04:29:16.359Z,1011.22
2017-08-21T04:31:40.151Z,1011.27
2017-08-21T04:34:04.027Z,1011.31
2017-08-21T04:36:27.906Z,1011.28
2017-08-21T04:38:51.778Z,1011.28
2017-08-21T04:41:15.657Z,1011.27
2017-08-21T04:43:39.537Z,1011.18
2017-08-21T04:46:03.416Z,1011.17
2017-08-21T04:48:27.292Z,1011.2
2017-08-21T04:50:51.170Z,1011.15
2017-08-21T04:53:06.538Z,1011.13
2017-08-21T04:55:21.923Z,1011.08
2017-08-21T04:57:45.833Z,1010.98
2017-08-21T05:00:09.675Z,1010.96
2017-08-21T05:02:42.356Z,1011.03
2017-08-21T05:05:06.305Z,1011.09
2017-08-21T05:07:32.196Z,1011.11
2017-08-21T05:09:56.046Z,1011.17
2017-08-21T05:12:19.920Z,1011.21
2017-08-21T05:14:51.678Z,1011.13
2017-08-21T05:17:15.467Z,1011.1
2017-08-21T05:19:40.370Z,1011.17
2017-08-21T05:23:39.833Z,1011.2
2017-08-21T05:26:12.256Z,1011.19
2017-08-21T05:28:36.093Z,1011.17
2017-08-21T05:30:59.903Z,1011.16
2017-08-21T05:34:59.919Z,1011.17
2017-08-21T05:38:51.030Z,1011.23
2017-08-21T05:41:14.928Z,1011.27
2017-08-21T05:43:38.772Z,1011.22
2017-08-21T05:46:02.727Z,1011.17
2017-08-21T05:50:02.275Z,1011.22
2017-08-21T05:52:17.798Z,1011.28
2017-08-21T05:56:17.833Z,1011.39
2017-08-21T05:58:41.712Z,1011.35
2017-08-21T06:01:20.258Z,1011.41
2017-08-21T06:03:44.136Z,1011.49
2017-08-21T06:06:08.026Z,1011.52
2017-08-21T06:09:54.670Z,1011.62
2017-08-21T06:12:18.726Z,1011.65
2017-08-21T06:14:42.689Z,1011.65
2017-08-21T06:17:06.657Z,1011.7
2017-08-21T06:19:31.684Z,1011.67
2017-08-21T06:21:47.222Z,1011.63
2017-08-21T06:24:11.230Z,1011.67
2017-08-21T06:26:35.167Z,1011.72
2017-08-21T06:28:45.087Z,1011.79
2017-08-21T06:30:53.252Z,1011.81
2017-08-21T06:33:18.278Z,1011.82
2017-08-21T06:35:44.316Z,1011.83
2017-08-21T06:37:46.187Z,1011.89
2017-08-21T06:39:47.557Z,1011.88
2017-08-21T06:42:11.605Z,1011.9
2017-08-21T06:44:35.688Z,1011.82
2017-08-21T06:46:59.786Z,1011.81
2017-08-21T06:49:23.864Z,1011.81
2017-08-21T06:51:48.060Z,1011.83
2017-08-21T06:54:12.241Z,1011.8
2017-08-21T06:56:36.433Z,1011.8
2017-08-21T06:59:01.414Z,1011.84
2017-08-21T07:01:17.244Z,1011.78
2017-08-21T07:03:41.533Z,1011.77
2017-08-21T07:05:52.029Z,1011.78
2017-08-21T07:08:16.380Z,1011.72
2017-08-21T07:10:32.231Z,1011.69
2017-08-21T07:12:56.570Z,1011.71
2017-08-21T07:15:20.969Z,1011.71
2017-08-21T07:17:22.390Z,1011.71
2017-08-21T07:19:46.809Z,1011.66
2017-08-21T07:22:11.188Z,1011.69
2017-08-21T07:24:04.316Z,1011.7
2017-08-21T07:26:28.749Z,1011.62
2017-08-21T07:30:29.536Z,1011.65
2017-08-21T07:32:45.597Z,1011.69
2017-08-21T07:35:10.098Z,1011.71
2017-08-21T07:37:34.596Z,1011.73
2017-08-21T07:39:59.091Z,1011.74
2017-08-21T07:42:15.307Z,1011.83
2017-08-21T07:44:31.550Z,1011.81
2017-08-21T07:46:56.332Z,1011.83
2017-08-21T07:49:12.635Z,1011.8
2017-08-21T07:51:37.543Z,1011.78
2017-08-21T07:54:02.555Z,1011.74
2017-08-21T07:56:27.777Z,1011.67
2017-08-21T07:58:53.820Z,1011.73
2017-08-21T08:01:18.914Z,1011.74
2017-08-21T08:03:35.424Z,1011.74
2017-08-21T08:05:37.520Z,1011.73
2017-08-21T08:07:54.085Z,1011.7
2017-08-21T08:10:18.985Z,1011.73
2017-08-21T08:12:43.863Z,1011.69
2017-08-21T08:15:08.762Z,1011.7
2017-08-21T08:17:33.657Z,1011.64
2017-08-21T08:19:58.561Z,1011.66
2017-08-21T08:22:00.649Z,1011.59
2017-08-21T08:24:25.521Z,1011.64
2017-08-21T08:26:50.422Z,1011.68
2017-08-21T08:29:01.706Z,1011.69
2017-08-21T08:31:04.079Z,1011.71
2017-08-21T08:33:20.648Z,1011.72
2017-08-21T08:35:45.517Z,1011.72
2017-08-21T08:38:10.877Z,1011.71
2017-08-21T08:40:39.189Z,1011.69
2017-08-21T08:43:05.175Z,1011.64
2017-08-21T08:45:34.130Z,1011.76
2017-08-21T08:48:00.611Z,1011.74
2017-08-21T08:51:40.539Z,1011.87
2017-08-21T08:54:07.825Z,1011.87
2017-08-21T08:56:34.113Z,1011.82
2017-08-21T08:59:02.492Z,1011.81
2017-08-21T09:03:04.941Z,1011.8
2017-08-21T09:05:32.748Z,1011.86
2017-08-21T09:07:43.041Z,1011.9
2017-08-21T09:10:08.362Z,1011.9
2017-08-21T09:12:33.493Z,1011.92
2017-08-21T09:14:50.286Z,1011.93
2017-08-21T09:17:15.492Z,1011.89
2017-08-21T09:19:40.680Z,1012
2017-08-21T09:21:51.476Z,1011.91
2017-08-21T09:24:16.834Z,1011.93
2017-08-21T09:26:42.233Z,1011.93
2017-08-21T09:28:52.605Z,1011.96
2017-08-21T09:31:17.995Z,1011.96
2017-08-21T09:33:34.807Z,1011.97
2017-08-21T09:35:45.640Z,1012.01
2017-08-21T09:38:10.986Z,1011.96
2017-08-21T09:40:36.981Z,1011.97
2017-08-21T09:42:53.104Z,1012
2017-08-21T09:45:19.461Z,1011.97
2017-08-21T09:47:45.011Z,1011.9
2017-08-21T09:50:01.662Z,1011.95
2017-08-21T09:52:18.594Z,1011.88
2017-08-21T09:54:45.032Z,1011.9
2017-08-21T09:57:10.517Z,1011.89
2017-08-21T09:59:35.991Z,1011.94
2017-08-21T10:02:01.477Z,1011.9
2017-08-21T10:04:27.069Z,1011.86
2017-08-21T10:06:52.354Z,1011.84
2017-08-21T10:09:17.771Z,1011.82
2017-08-21T10:11:43.241Z,1011.81
2017-08-21T10:14:08.674Z,1011.71
2017-08-21T10:16:34.277Z,1011.68
2017-08-21T10:18:59.663Z,1011.71
2017-08-21T10:21:24.958Z,1011.67
2017-08-21T10:23:50.283Z,1011.67
2017-08-21T10:26:15.837Z,1011.65
2017-08-21T10:28:41.262Z,1011.62
2017-08-21T10:31:06.883Z,1011.62
2017-08-21T10:33:32.372Z,1011.57
2017-08-21T10:35:58.609Z,1011.5
2017-08-21T10:38:23.923Z,1011.49
2017-08-21T10:40:49.134Z,1011.48
2017-08-21T10:43:14.310Z,1011.49
2017-08-21T10:45:39.545Z,1011.46
2017-08-21T10:48:05.473Z,1011.47
2017-08-21T10:50:30.734Z,1011.47
2017-08-21T10:52:55.890Z,1011.44
2017-08-21T10:55:20.982Z,1011.37
2017-08-21T10:57:46.108Z,1011.34
2017-08-21T11:00:11.350Z,1011.3
2017-08-21T11:02:36.456Z,1011.3
2017-08-21T11:05:01.498Z,1011.3
2017-08-21T11:07:18.049Z,1011.25
2017-08-21T11:09:43.250Z,1011.29
2017-08-21T11:12:08.329Z,1011.26
2017-08-21T11:14:33.497Z,1011.27
2017-08-21T11:16:58.569Z,1011.22
2017-08-21T11:19:23.586Z,1011.22
2017-08-21T11:21:48.725Z,1011.19
2017-08-21T11:24:14.086Z,1011.16
2017-08-21T11:26:40.070Z,1011.16
2017-08-21T11:29:07.281Z,1011.04
2017-08-21T11:31:33.290Z,1011.09
2017-08-21T11:33:59.695Z,1011.03
2017-08-21T11:36:24.688Z,1011.03
2017-08-21T11:38:49.764Z,1010.98
2017-08-21T11:41:15.948Z,1010.97
2017-08-21T11:43:41.158Z,1010.94
2017-08-21T11:46:06.125Z,1010.89
2017-08-21T11:48:31.231Z,1010.88
2017-08-21T11:50:56.212Z,1010.83
2017-08-21T11:53:21.206Z,1010.83
2017-08-21T11:55:46.060Z,1010.86
2017-08-21T11:58:11.113Z,1010.84
2017-08-21T12:00:35.898Z,1010.77
2017-08-21T12:03:01.090Z,1010.69
2017-08-21T12:05:25.751Z,1010.64
2017-08-21T12:07:50.753Z,1010.64
2017-08-21T12:10:15.924Z,1010.61
2017-08-21T12:12:53.088Z,1010.54
2017-08-21T12:15:18.500Z,1010.57
2017-08-21T12:17:43.479Z,1010.5
2017-08-21T12:20:08.346Z,1010.45
2017-08-21T12:22:33.264Z,1010.55
2017-08-21T12:24:58.229Z,1010.51
2017-08-21T12:27:23.177Z,1010.52
2017-08-21T12:29:48.461Z,1010.45
2017-08-21T12:32:13.563Z,1010.42
2017-08-21T12:34:38.460Z,1010.43
2017-08-21T12:37:04.186Z,1010.4
2017-08-21T12:39:29.094Z,1010.36
2017-08-21T12:41:54.111Z,1010.36
2017-08-21T12:44:19.093Z,1010.37
2017-08-21T12:46:44.087Z,1010.35
2017-08-21T12:49:09.031Z,1010.32
2017-08-21T12:51:33.873Z,1010.27
2017-08-21T12:53:58.763Z,1010.29
2017-08-21T12:56:23.800Z,1010.24
2017-08-21T12:58:50.747Z,1010.21
2017-08-21T13:01:15.740Z,1010.18
2017-08-21T13:03:40.639Z,1010.14
2017-08-21T13:06:05.525Z,1010.16
2017-08-21T13:08:30.376Z,1010.13
2017-08-21T13:10:55.402Z,1010.19
2017-08-21T13:13:20.002Z,1010.12
2017-08-21T13:17:20.725Z,1010.05
2017-08-21T13:19:37.040Z,1010.04
2017-08-21T13:21:48.754Z,1010.02
2017-08-21T13:24:05.188Z,1010.02
2017-08-21T13:26:30.065Z,1009.94
2017-08-21T13:28:46.463Z,1009.97
2017-08-21T13:30:48.058Z,1009.95
2017-08-21T13:32:58.203Z,1009.89
2017-08-21T13:35:23.055Z,1009.91
2017-08-21T13:37:47.883Z,1009.92
2017-08-21T13:40:04.145Z,1009.87
2017-08-21T13:42:29.030Z,1009.92
2017-08-21T13:44:53.825Z,1009.9
2017-08-21T13:47:18.718Z,1009.88
2017-08-21T13:49:44.013Z,1009.85
2017-08-21T13:52:08.431Z,1009.78
2017-08-21T13:54:33.351Z,1009.75
2017-08-21T13:56:58.256Z,1009.77
2017-08-21T13:59:25.727Z,1009.77
2017-08-21T14:04:20.684Z,1009.71
2017-08-21T14:08:29.154Z,1009.65
2017-08-21T14:10:54.704Z,1009.7
2017-08-21T14:13:22.841Z,1009.69
2017-08-21T14:15:50.846Z,1009.65
2017-08-21T14:18:15.717Z,1009.59
2017-08-21T14:20:41.702Z,1009.54
2017-08-21T14:23:06.745Z,1009.52
2017-08-21T14:25:34.898Z,1009.48
2017-08-21T14:27:58.108Z,1009.52
2017-08-21T14:30:23.233Z,1009.49
2017-08-21T14:32:48.644Z,1009.46
2017-08-21T14:35:14.692Z,1009.44
2017-08-21T14:37:39.540Z,1009.43
2017-08-21T14:40:11.140Z,1009.39
2017-08-21T14:42:13.206Z,1009.39
2017-08-21T14:44:37.960Z,1009.47
2017-08-21T14:46:40.483Z,1009.47
2017-08-21T14:49:05.254Z,1009.51
2017-08-21T14:51:30.112Z,1009.47
2017-08-21T14:53:54.961Z,1009.4
2017-08-21T14:56:20.065Z,1009.41
2017-08-21T14:58:45.098Z,1009.39
2017-08-21T15:01:15.007Z,1009.4
2017-08-21T15:03:39.621Z,1009.38
2017-08-21T15:06:10.970Z,1009.46
2017-08-21T15:08:38.439Z,1009.42
2017-08-21T15:11:04.000Z,1009.42
2017-08-21T15:13:28.821Z,1009.43
2017-08-21T15:15:53.552Z,1009.38
2017-08-21T15:18:18.317Z,1009.4
2017-08-21T15:20:43.494Z,1009.37
2017-08-21T15:23:08.316Z,1009.34
2017-08-21T15:25:24.719Z,1009.27
2017-08-21T15:27:49.528Z,1009.24
2017-08-21T15:30:14.217Z,1009.25
2017-08-21T15:32:38.984Z,1009.3
2017-08-21T15:35:03.930Z,1009.3
2017-08-21T15:37:28.737Z,1009.24
2017-08-21T15:39:53.514Z,1009.22
2017-08-21T15:42:18.556Z,1009.23
2017-08-21T15:44:44.224Z,1009.22
2017-08-21T15:47:10.116Z,1009.24
2017-08-21T15:49:34.752Z,1009.27
2017-08-21T15:51:59.342Z,1009.22
2017-08-21T15:54:24.038Z,1009.24
2017-08-21T15:56:48.716Z,1009.27
2017-08-21T15:59:13.705Z,1009.25
2017-08-21T16:01:26.748Z,1009.23
2017-08-21T16:03:52.509Z,1009.21
2017-08-21T16:06:18.541Z,1009.14
2017-08-21T16:08:45.149Z,1009.15
2017-08-21T16:11:10.311Z,1009.17
2017-08-21T16:13:36.399Z,1009.2
2017-08-21T16:16:03.903Z,1009.17
2017-08-21T16:18:35.334Z,1009.15
2017-08-21T16:20:59.981Z,1009.21
2017-08-21T16:23:24.751Z,1009.17
2017-08-21T16:25:50.737Z,1009.15
2017-08-21T16:28:15.735Z,1009.14
2017-08-21T16:30:41.749Z,1009.12
2017-08-21T16:33:06.342Z,1009.12
2017-08-21T16:35:30.945Z,1009.06
2017-08-21T16:37:33.937Z,1009.1
2017-08-21T16:39:59.573Z,1009.07
2017-08-21T16:42:24.172Z,1009.1
2017-08-21T16:44:48.743Z,1009.12
2017-08-21T16:47:13.381Z,1009.1
2017-08-21T16:49:38.049Z,1009.11
2017-08-21T16:52:02.686Z,1009.1
2017-08-21T16:54:27.272Z,1009.11
2017-08-21T16:56:51.837Z,1009.05
2017-08-21T16:59:16.427Z,1009.05
2017-08-21T17:01:41.096Z,1009.07
2017-08-21T17:04:20.395Z,1009.02
2017-08-21T17:06:44.908Z,1009.02
2017-08-21T17:09:09.544Z,1008.98
2017-08-21T17:11:34.047Z,1008.99
2017-08-21T17:13:58.633Z,1008.97
2017-08-21T17:16:23.291Z,1008.95
2017-08-21T17:18:47.991Z,1008.97
2017-08-21T17:21:13.728Z,1008.9
2017-08-21T17:23:39.669Z,1008.95
2017-08-21T17:26:04.293Z,1008.99
2017-08-21T17:28:29.566Z,1008.97
2017-08-21T17:30:54.361Z,1008.95
2017-08-21T17:33:19.032Z,1008.94
2017-08-21T17:35:45.292Z,1008.94
2017-08-21T17:38:10.855Z,1009.02
2017-08-21T17:40:35.623Z,1009.01
2017-08-21T17:43:00.394Z,1009.01
2017-08-21T17:45:25.078Z,1009.04
2017-08-21T17:49:48.572Z,1009.08
2017-08-21T17:52:14.092Z,1009.1
2017-08-21T17:54:38.571Z,1009.05
2017-08-21T17:57:03.170Z,1009.07
2017-08-21T17:59:37.504Z,1009.07
2017-08-21T18:02:01.944Z,1009.06
2017-08-21T18:04:26.512Z,1009.04
2017-08-21T18:06:51.201Z,1009.01
2017-08-21T18:09:19.391Z,1009.07
2017-08-21T18:11:56.453Z,1009.1
2017-08-21T18:14:17.863Z,1009.1
2017-08-21T18:16:42.452Z,1009.1
2017-08-21T18:20:18.722Z,1009.21
2017-08-21T18:22:44.110Z,1009.19
2017-08-21T18:25:09.002Z,1009.22
2017-08-21T18:27:33.301Z,1009.21
2017-08-21T18:29:57.895Z,1009.18
2017-08-21T18:32:22.356Z,1009.18
2017-08-21T18:34:48.244Z,1009.18
2017-08-21T18:37:16.309Z,1009.13
2017-08-21T18:39:47.481Z,1009.14
2017-08-21T18:44:02.170Z,1009.15
2017-08-21T18:46:27.715Z,1009.21
2017-08-21T18:48:52.696Z,1009.23
2017-08-21T18:51:17.512Z,1009.28
2017-08-21T18:53:42.967Z,1009.28
2017-08-21T18:56:07.636Z,1009.27
2017-08-21T18:58:32.132Z,1009.29
2017-08-21T19:00:56.383Z,1009.28
2017-08-21T19:03:23.524Z,1009.34
2017-08-21T19:08:05.616Z,1009.38
2017-08-21T19:14:58.827Z,1009.35
2017-08-21T19:19:34.832Z,1009.36
2017-08-21T19:26:53.292Z,1009.41
2017-08-21T19:29:18.137Z,1009.38
2017-08-21T19:31:43.122Z,1009.36
2017-08-21T19:34:07.519Z,1009.33
2017-08-21T19:36:32.105Z,1009.34
2017-08-21T19:38:56.627Z,1009.32
2017-08-21T19:41:21.361Z,1009.34
2017-08-21T19:43:45.572Z,1009.3
2017-08-21T19:46:10.034Z,1009.33
2017-08-21T19:48:34.420Z,1009.23
2017-08-21T19:51:05.573Z,1009.25
2017-08-21T19:53:29.985Z,1009.26
2017-08-21T19:55:54.268Z,1009.24
2017-08-21T19:58:18.578Z,1009.22
2017-08-21T20:00:42.820Z,1009.22
2017-08-21T20:03:06.981Z,1009.25
2017-08-21T20:05:31.236Z,1009.26
2017-08-21T20:07:55.415Z,1009.28
2017-08-21T20:10:19.799Z,1009.34
2017-08-21T20:12:44.224Z,1009.33
2017-08-21T20:15:09.722Z,1009.3
2017-08-21T20:17:34.280Z,1009.28
2017-08-21T20:19:58.696Z,1009.26
2017-08-21T20:22:23.156Z,1009.23
2017-08-21T20:24:47.458Z,1009.24
2017-08-21T20:27:11.665Z,1009.3
2017-08-21T20:29:36.109Z,1009.31
2017-08-21T20:32:01.318Z,1009.28
2017-08-21T20:34:25.654Z,1009.29
2017-08-21T20:36:51.129Z,1009.29
2017-08-21T20:39:15.580Z,1009.29
2017-08-21T20:41:40.490Z,1009.3
2017-08-21T20:44:05.887Z,1009.34
2017-08-21T20:46:31.453Z,1009.32
2017-08-21T20:50:31.552Z,1009.24
2017-08-21T20:52:55.691Z,1009.25
2017-08-21T20:55:20.095Z,1009.22
2017-08-21T20:57:44.373Z,1009.22
2017-08-21T21:00:09.313Z,1009.22
2017-08-21T21:02:33.574Z,1009.22
2017-08-21T21:04:57.687Z,1009.25
2017-08-21T21:07:21.875Z,1009.27
2017-08-21T21:09:46.006Z,1009.27
2017-08-21T21:12:10.080Z,1009.25
2017-08-21T21:14:34.187Z,1009.23
2017-08-21T21:16:58.383Z,1009.24
2017-08-21T21:19:22.572Z,1009.26
2017-08-21T21:21:46.570Z,1009.2
2017-08-21T21:24:10.734Z,1009.21
2017-08-21T21:26:34.963Z,1009.25
2017-08-21T21:28:59.096Z,1009.28
2017-08-21T21:31:23.471Z,1009.3
2017-08-21T21:33:47.708Z,1009.29
2017-08-21T21:35:51.521Z,1009.28
2017-08-21T21:38:15.705Z,1009.3
2017-08-21T21:40:40.216Z,1009.29
2017-08-21T21:43:04.132Z,1009.29
2017-08-21T21:45:28.513Z,1009.29
2017-08-21T21:47:52.570Z,1009.29
2017-08-21T21:50:16.764Z,1009.24
2017-08-21T21:52:40.790Z,1009.29
2017-08-21T21:55:04.923Z,1009.27
2017-08-21T21:57:30.034Z,1009.25
2017-08-21T21:59:54.214Z,1009.28
2017-08-21T22:02:18.287Z,1009.3
2017-08-21T22:06:18.683Z,1009.33
2017-08-21T22:08:34.288Z,1009.3
2017-08-21T22:10:58.371Z,1009.3
2017-08-21T22:13:22.462Z,1009.28
2017-08-21T22:15:46.560Z,1009.32
2017-08-21T22:18:10.597Z,1009.35
2017-08-21T22:20:34.708Z,1009.29
2017-08-21T22:22:58.650Z,1009.26
2017-08-21T22:25:14.209Z,1009.27
2017-08-21T22:27:29.853Z,1009.23
2017-08-21T22:29:53.837Z,1009.2
2017-08-21T22:33:54.140Z,1009.17
2017-08-21T22:36:09.729Z,1009.23
2017-08-21T22:38:33.724Z,1009.23
2017-08-21T22:40:35.598Z,1009.2
2017-08-21T22:42:59.680Z,1009.22
2017-08-21T22:45:23.618Z,1009.23
2017-08-21T22:47:47.636Z,1009.23
2017-08-21T22:50:11.582Z,1009.19
2017-08-21T22:52:35.597Z,1009.23
2017-08-21T22:54:59.576Z,1009.24
2017-08-21T22:58:45.785Z,1009.17
2017-08-21T23:01:01.324Z,1009.13
2017-08-21T23:03:11.710Z,1009.16
2017-08-21T23:05:35.714Z,1009.1
2017-08-21T23:07:59.688Z,1009.08
2017-08-21T23:10:23.624Z,1009.04
2017-08-21T23:12:47.633Z,1009.07
2017-08-21T23:15:11.605Z,1009.09
2017-08-21T23:17:35.608Z,1009.03
2017-08-21T23:21:35.903Z,1009.04
2017-08-21T23:23:59.917Z,1008.96
2017-08-21T23:26:10.283Z,1008.95
2017-08-21T23:28:12.158Z,1008.93
2017-08-21T23:30:27.690Z,1008.89
2017-08-21T23:32:51.700Z,1008.9
2017-08-21T23:35:15.690Z,1008.88
2017-08-21T23:37:39.651Z,1008.92
2017-08-21T23:39:41.510Z,1008.87
2017-08-21T23:42:05.501Z,1008.85
2017-08-21T23:44:21.052Z,1008.83
2017-08-21T23:46:45.055Z,1008.82
2017-08-21T23:48:46.932Z,1008.82
2017-08-21T23:51:10.892Z,1008.83
2017-08-21T23:53:34.771Z,1008.8
2017-08-21T23:55:58.734Z,1008.73
2017-08-21T23:58:14.192Z,1008.71
